CheckWX is a tool to help pilots better visualize weather data.  It is not intended as a substitute for an official pre-flight weather briefing.

12:55:34 UTC

KOPL METAR
St Landry Parish-Ahart Field Airport
Opelousas, Louisiana, USA
Current

21 mins ago

KOPL 171235Z AUTO 00000KT 7SM CLR 00/00 A3010 RMK AO2 T00001004
Observed
Nov-17 @ 12:35 UTC
Visibility
7 SM
Flight Rules
VFR
Cloud Levels
  • Clear skies
Temperature
C / 32°F
Dewpoint
-0°C / 32°F
Humidity
100%
Altimeter
30.1" Hg
Pressure
1019.32 hPa
Previous

41 mins ago

KOPL 171215Z AUTO 00000KT 7SM CLR 00/M01 A3009 RMK AO2 T10011007
Observed
Nov-17 @ 12:15 UTC
Visibility
7 SM
Flight Rules
VFR
Cloud Levels
  • Clear skies
Temperature
-0°C / 32°F
Dewpoint
-1°C / 30°F
Humidity
93%
Altimeter
30.09" Hg
Pressure
1018.92 hPa
Previous

1 hour ago

KOPL 171135Z AUTO 00000KT 10SM CLR 01/00 A3008 RMK AO2 T00080001
Observed
Nov-17 @ 11:35 UTC
Visibility
10 SM
Flight Rules
VFR
Cloud Levels
  • Clear skies
Temperature
C / 34°F
Dewpoint
C / 32°F
Humidity
93%
Altimeter
30.08" Hg
Pressure
1018.62 hPa